Bountiful, Colorado
Current Conditions -  °F | °C
As of 10:52 PM on Tuesday 25 Nov 2014 (Local Time) from KALS Reporting Station
Clear Clear  
Wind Chill:   Ceiling: Unl
Heat Index: 14°   Visibility: 10mi
Dew Point:   Wind: 7mph
Humidity: 71%   Direction: 280°W
Pressure: 30.25"   Gusts: NA
Location:  37.3121°N, 106.036°W
Report Text: KALS 260552Z AUTO 28006KT 10SM CLR M10/M14 A3025 RMK AO2 SLP286 T11001144 11028 21111 53014
Loading
Personal Weather Stations






























Interactive Weather Map New forecast layout! Learn more

10-Day Weather Forecast

Advertisements
Track Severe Weather on mobile